Time;durP1;ratioP1;P1;durP2;ratioP2;P2;SDS_P1;SDS_P2;PMS_P1;PMS_P2;Temp;Humidity;BMP_temperature;BMP_pressure;BME280_temperature;BME280_humidity;BME280_pressure;Samples;Min_cycle;Max_cycle;Signal;HPM_P1;HPM_P2
2023/01/12 00:00:39;;;;;;;21.80;18.20;;;21.90;99.90;;;;;;1888679;76;21171;-88
2023/01/12 00:03:18;;;;;;;23.77;19.15;;;21.90;99.90;;;;;;1890302;76;21570;-87
2023/01/12 00:05:52;;;;;;;22.27;18.20;;;21.90;99.90;;;;;;1889404;76;21166;-87
2023/01/12 00:08:23;;;;;;;24.57;18.17;;;21.90;99.90;;;;;;1888922;76;21128;-86
2023/01/12 00:10:57;;;;;;;21.25;16.70;;;21.90;99.90;;;;;;1888634;76;21076;-87
2023/01/12 00:13:29;;;;;;;22.48;17.77;;;21.90;99.90;;;;;;1883895;76;21072;-87
2023/01/12 00:18:51;;;;;;;23.55;18.67;;;21.90;99.90;;;;;;1888980;74;21201;-88
2023/01/12 00:21:22;;;;;;;24.27;20.15;;;21.90;99.90;;;;;;1880789;75;21092;-88
2023/01/12 00:23:53;;;;;;;24.05;18.80;;;21.90;99.90;;;;;;1844372;77;21105;-89
2023/01/12 00:26:24;;;;;;;23.85;19.98;;;21.90;99.90;;;;;;1883885;74;21092;-86
2023/01/12 00:28:55;;;;;;;26.48;20.17;;;21.90;99.90;;;;;;1888368;76;21139;-86
2023/01/12 00:31:27;;;;;;;23.85;19.55;;;21.90;99.90;;;;;;1872393;74;21124;-83
2023/01/12 00:34:01;;;;;;;28.23;20.90;;;21.90;99.90;;;;;;1878193;74;21528;-84
2023/01/12 00:36:32;;;;;;;23.22;19.60;;;21.90;99.90;;;;;;1889357;74;21252;-84
2023/01/12 00:39:04;;;;;;;26.42;20.95;;;21.90;99.90;;;;;;1876160;74;21216;-84
2023/01/12 00:47:15;;;;;;;23.98;17.45;;;21.90;99.90;;;;;;1823621;77;21136;-84
2023/01/12 00:49:47;;;;;;;28.45;19.80;;;22.00;99.90;;;;;;1849975;77;21123;-86
2023/01/12 00:52:19;;;;;;;26.00;18.60;;;22.00;99.90;;;;;;1852972;77;21125;-72
2023/01/12 00:54:52;;;;;;;20.43;16.57;;;22.00;99.90;;;;;;1830616;77;21088;-73
2023/01/12 00:57:23;;;;;;;20.37;15.35;;;22.10;99.90;;;;;;1848066;77;21070;-73
2023/01/12 00:59:56;;;;;;;18.23;14.15;;;22.10;99.90;;;;;;1873894;74;21107;-74
2023/01/12 01:02:28;;;;;;;17.45;14.03;;;22.10;99.90;;;;;;1885445;74;21096;-72
2023/01/12 01:05:00;;;;;;;17.07;13.50;;;22.10;99.90;;;;;;1889586;74;21207;-71
2023/01/12 01:07:34;;;;;;;17.02;12.45;;;22.10;99.90;;;;;;1888512;74;21796;-74
2023/01/12 01:10:07;;;;;;;20.68;15.63;;;22.10;99.90;;;;;;1894371;74;21579;-72
2023/01/12 01:12:38;;;;;;;19.27;15.48;;;22.00;99.90;;;;;;1890005;74;21664;-74
2023/01/12 01:15:11;;;;;;;18.32;13.62;;;22.10;99.90;;;;;;1885567;74;21175;-72
2023/01/12 01:17:43;;;;;;;16.32;13.03;;;22.10;99.90;;;;;;1886897;74;21189;-73
2023/01/12 01:20:14;;;;;;;23.22;18.27;;;22.10;99.90;;;;;;1891481;74;21207;-72
2023/01/12 01:22:46;;;;;;;17.80;14.13;;;22.10;99.90;;;;;;1896996;74;21146;-73
2023/01/12 01:25:18;;;;;;;17.30;13.90;;;22.10;99.90;;;;;;1888194;74;21188;-74
2023/01/12 01:27:49;;;;;;;18.35;13.90;;;22.10;99.90;;;;;;1889487;74;21133;-75
2023/01/12 01:30:24;;;;;;;19.42;14.58;;;22.20;99.90;;;;;;1888982;74;21205;-83
2023/01/12 01:32:59;;;;;;;20.92;15.83;;;22.20;99.90;;;;;;1886437;74;21080;-82
2023/01/12 01:35:30;;;;;;;23.73;16.37;;;22.20;99.90;;;;;;1887469;75;21139;-85
2023/01/12 01:38:01;;;;;;;23.83;17.75;;;22.30;99.90;;;;;;1829744;77;21155;-84
2023/01/12 01:40:33;;;;;;;18.80;14.87;;;22.30;99.90;;;;;;1823712;77;21192;-85
2023/01/12 01:43:05;;;;;;;18.42;14.47;;;22.40;99.90;;;;;;1848471;77;21555;-85
2023/01/12 01:45:41;;;;;;;18.23;14.25;;;22.40;99.90;;;;;;1830654;77;21268;-87
2023/01/12 01:48:16;;;;;;;19.60;15.90;;;22.40;99.90;;;;;;1835874;77;21145;-85
2023/01/12 01:50:52;;;;;;;31.75;26.05;;;22.40;99.90;;;;;;1804765;77;21223;-88
2023/01/12 01:53:25;;;;;;;23.20;15.50;;;22.40;99.90;;;;;;1852636;76;21059;-87
2023/01/12 01:55:59;;;;;;;16.37;13.72;;;22.50;99.90;;;;;;1840994;76;21163;-87
2023/01/12 01:58:34;;;;;;;18.90;13.68;;;22.50;99.90;;;;;;1853729;76;21098;-87
2023/01/12 02:01:06;;;;;;;15.28;12.73;;;22.50;99.90;;;;;;1848871;77;21115;-88
2023/01/12 02:03:37;;;;;;;20.20;13.60;;;22.60;99.90;;;;;;1836151;77;21135;-87
2023/01/12 02:06:09;;;;;;;17.98;13.78;;;22.60;99.90;;;;;;1887340;75;21142;-88
2023/01/12 02:08:43;;;;;;;17.60;13.93;;;22.60;99.90;;;;;;1856292;77;21226;-87
2023/01/12 02:17:10;;;;;;;17.50;13.15;;;22.70;99.90;;;;;;1844804;76;21167;-88
2023/01/12 02:19:52;;;;;;;23.67;14.78;;;22.70;99.90;;;;;;1851706;77;21064;-87
2023/01/12 02:22:34;;;;;;;16.25;12.63;;;22.70;99.90;;;;;;1852692;77;21574;-87
2023/01/12 02:25:42;;;;;;;14.33;12.20;;;22.70;99.90;;;;;;1812501;78;21080;-88
2023/01/12 02:28:25;;;;;;;13.98;10.48;;;22.70;99.90;;;;;;1837098;77;21124;-87
2023/01/12 02:31:24;;;;;;;14.18;11.15;;;22.70;99.90;;;;;;1896999;76;21052;-87
2023/01/12 02:34:20;;;;;;;13.50;10.70;;;22.70;99.90;;;;;;1892727;76;21088;-89
2023/01/12 02:37:21;;;;;;;13.90;11.08;;;22.80;99.90;;;;;;1891268;76;21750;-86
2023/01/12 02:39:58;;;;;;;16.20;10.72;;;22.80;99.90;;;;;;1890514;74;21588;-88
2023/01/12 02:42:41;;;;;;;13.53;11.12;;;22.80;99.90;;;;;;1891248;74;21283;-88
2023/01/12 02:45:33;;;;;;;16.35;11.18;;;22.80;99.90;;;;;;1878377;75;21158;-89
2023/01/12 02:48:18;;;;;;;15.95;11.43;;;22.90;99.90;;;;;;1867154;75;21090;-88
2023/01/12 02:50:51;;;;;;;16.37;11.45;;;22.90;99.90;;;;;;1881280;75;21088;-87
2023/01/12 02:53:31;;;;;;;18.23;10.53;;;23.00;99.90;;;;;;1883066;76;21056;-89
2023/01/12 02:56:04;;;;;;;13.15;10.45;;;23.00;99.90;;;;;;1881399;76;21176;-88
2023/01/12 02:58:38;;;;;;;16.50;11.83;;;23.00;99.90;;;;;;1879100;75;21080;-88
2023/01/12 03:01:10;;;;;;;12.23;10.13;;;23.00;99.90;;;;;;1881581;76;21153;-88
2023/01/12 03:03:42;;;;;;;14.20;10.93;;;23.00;99.90;;;;;;1878585;76;21153;-88
2023/01/12 03:06:18;;;;;;;12.82;10.18;;;23.00;99.90;;;;;;1882332;76;21084;-88
2023/01/12 03:08:51;;;;;;;11.40;9.55;;;23.00;99.90;;;;;;1879338;76;21124;-87
2023/01/12 03:11:23;;;;;;;12.43;9.80;;;23.00;99.90;;;;;;1875782;76;21060;-86
2023/01/12 03:13:59;;;;;;;15.25;9.93;;;23.00;99.90;;;;;;1869512;76;21084;-87
2023/01/12 03:16:33;;;;;;;10.98;8.70;;;23.10;99.90;;;;;;1864140;76;21056;-88
2023/01/12 03:19:09;;;;;;;10.55;8.40;;;23.10;99.90;;;;;;1880482;76;21182;-88
2023/01/12 03:21:49;;;;;;;11.12;8.00;;;23.10;99.90;;;;;;1879029;76;21072;-87
2023/01/12 03:24:25;;;;;;;12.88;8.80;;;23.10;99.90;;;;;;1875923;76;21084;-87
2023/01/12 03:26:58;;;;;;;15.03;10.27;;;23.20;99.90;;;;;;1881044;76;21080;-87
2023/01/12 03:29:37;;;;;;;15.10;11.35;;;23.20;99.90;;;;;;1847894;78;21094;-87
2023/01/12 03:32:08;;;;;;;12.55;10.95;;;23.20;99.90;;;;;;1880377;76;21115;-87
2023/01/12 03:34:40;;;;;;;12.78;10.85;;;23.20;99.90;;;;;;1847052;76;21092;-86
2023/01/12 03:37:34;;;;;;;12.23;10.05;;;23.20;99.90;;;;;;1876797;75;21152;-88
2023/01/12 03:40:13;;;;;;;13.75;10.30;;;23.20;99.90;;;;;;1874801;76;21132;-87
2023/01/12 03:43:08;;;;;;;10.95;9.55;;;23.30;99.90;;;;;;1882923;76;21072;-88
2023/01/12 03:45:47;;;;;;;10.50;9.30;;;23.30;99.90;;;;;;1870255;76;21092;-88
2023/01/12 03:48:20;;;;;;;13.85;10.72;;;23.30;99.90;;;;;;1886021;76;21257;-87
2023/01/12 03:50:54;;;;;;;10.55;8.90;;;23.40;99.90;;;;;;1884951;76;21157;-86
2023/01/12 03:53:25;;;;;;;9.78;8.60;;;23.40;99.90;;;;;;1876427;76;21179;-86
2023/01/12 03:55:59;;;;;;;11.12;9.50;;;23.50;99.90;;;;;;1884363;76;21228;-88
2023/01/12 03:58:33;;;;;;;10.35;9.33;;;23.50;99.90;;;;;;1889391;75;21186;-87
2023/01/12 04:01:04;;;;;;;11.22;9.83;;;23.50;99.90;;;;;;1889889;75;21060;-88
2023/01/12 04:03:36;;;;;;;12.37;10.90;;;23.50;99.90;;;;;;1885683;75;21179;-86
2023/01/12 04:06:07;;;;;;;11.97;8.98;;;23.50;99.90;;;;;;1889082;75;21794;-84
2023/01/12 04:08:38;;;;;;;10.98;8.80;;;23.50;99.90;;;;;;1886953;76;21174;-85
2023/01/12 04:13:58;;;;;;;9.65;8.65;;;23.60;99.90;;;;;;1877562;76;21187;-87
2023/01/12 04:16:29;;;;;;;10.50;7.80;;;23.70;99.90;;;;;;1890216;76;21087;-88
2023/01/12 04:19:00;;;;;;;8.80;6.92;;;23.80;99.90;;;;;;1888004;74;21140;-88
2023/01/12 04:24:20;;;;;;;9.83;7.08;;;23.90;99.90;;;;;;1893849;75;21065;-84
2023/01/12 04:27:10;;;;;;;9.70;7.20;;;23.90;99.90;;;;;;1890351;75;21087;-86
2023/01/12 04:29:41;;;;;;;7.87;6.40;;;23.90;99.90;;;;;;1880938;76;21583;-88
2023/01/12 04:32:12;;;;;;;7.40;6.60;;;23.90;99.90;;;;;;1875923;75;21083;-89
2023/01/12 04:34:44;;;;;;;9.88;6.08;;;23.90;99.90;;;;;;1879547;76;21108;-88
2023/01/12 04:37:17;;;;;;;9.13;5.95;;;23.80;99.90;;;;;;1878981;76;21080;-89
2023/01/12 04:39:48;;;;;;;9.78;6.22;;;23.80;99.90;;;;;;1877020;76;21091;-88
2023/01/12 04:45:09;;;;;;;7.10;5.20;;;23.90;99.90;;;;;;1879701;76;21134;-84
2023/01/12 04:47:41;;;;;;;7.60;6.00;;;24.00;99.90;;;;;;1880868;76;21075;-85
2023/01/12 04:50:12;;;;;;;9.10;6.00;;;23.90;99.90;;;;;;1873213;75;21088;-85
2023/01/12 04:52:44;;;;;;;8.85;7.03;;;24.00;99.90;;;;;;1870938;76;21139;-86
2023/01/12 04:55:15;;;;;;;8.58;6.83;;;24.00;99.90;;;;;;1869206;75;21187;-85
2023/01/12 04:57:46;;;;;;;10.93;8.38;;;24.00;99.90;;;;;;1872616;75;21107;-88
2023/01/12 05:00:18;;;;;;;13.60;8.78;;;24.00;99.90;;;;;;1878677;76;21080;-87
2023/01/12 05:02:59;;;;;;;;;;;;;;;;;;;;;
2023/01/12 05:05:35;;;;;;;12.65;9.58;;;24.10;99.90;;;;;;1851119;77;21226;-87
2023/01/12 05:10:54;;;;;;;12.65;11.20;;;24.20;99.90;;;;;;1872945;75;21084;-86
2023/01/12 05:13:26;;;;;;;15.55;12.33;;;24.20;99.90;;;;;;1870473;75;21113;-84
2023/01/12 05:15:59;;;;;;;15.13;12.82;;;24.20;99.90;;;;;;1868392;76;21537;-87
2023/01/12 05:18:30;;;;;;;15.88;12.95;;;24.20;99.90;;;;;;1850484;77;22137;-88
2023/01/12 05:21:01;;;;;;;14.93;13.05;;;24.20;99.90;;;;;;1878895;75;21603;-87
2023/01/12 05:23:36;;;;;;;14.07;12.60;;;24.20;99.90;;;;;;1875997;75;21222;-87
2023/01/12 05:26:25;;;;;;;15.10;13.70;;;24.20;99.90;;;;;;1872098;75;21093;-87
2023/01/12 05:29:05;;;;;;;14.83;13.28;;;24.30;99.90;;;;;;1866477;76;21211;-87
2023/01/12 05:31:36;;;;;;;15.83;14.23;;;24.30;99.90;;;;;;1864242;76;21077;-89
2023/01/12 05:34:07;;;;;;;15.15;13.55;;;24.40;99.90;;;;;;1850562;76;21164;-89
2023/01/12 05:36:38;;;;;;;15.23;13.83;;;24.40;99.90;;;;;;1861744;76;21085;-87
2023/01/12 05:39:10;;;;;;;15.93;13.78;;;24.40;99.90;;;;;;1857518;76;21206;-87
2023/01/12 05:44:16;;;;;;;13.32;12.03;;;24.40;99.90;;;;;;1839634;75;21151;-86
2023/01/12 05:46:48;;;;;;;13.72;12.33;;;24.50;99.90;;;;;;1879263;75;21096;-88
2023/01/12 05:49:20;;;;;;;13.95;12.15;;;24.60;99.90;;;;;;1867048;76;21081;-88
2023/01/12 05:51:53;;;;;;;12.43;10.68;;;24.60;99.90;;;;;;1867631;74;21084;-88
2023/01/12 05:54:31;;;;;;;13.45;12.13;;;24.60;99.70;;;;;;1865612;76;21112;-87
2023/01/12 05:57:03;;;;;;;12.95;11.65;;;24.70;99.60;;;;;;1858457;76;21541;-85
2023/01/12 05:59:36;;;;;;;13.75;11.63;;;24.70;99.90;;;;;;1848324;76;21070;-89
2023/01/12 06:02:10;;;;;;;12.75;10.58;;;24.70;99.90;;;;;;1847926;76;21136;-88
2023/01/12 06:04:41;;;;;;;14.00;11.55;;;24.80;99.90;;;;;;1852716;76;21154;-89
2023/01/12 06:07:15;;;;;;;11.57;10.38;;;24.90;99.80;;;;;;1861042;76;21260;-87
2023/01/12 06:09:47;;;;;;;12.63;11.45;;;25.10;99.50;;;;;;1836556;78;21167;-86
2023/01/12 06:15:10;;;;;;;14.87;13.45;;;25.20;99.20;;;;;;1846598;76;21140;-84
2023/01/12 06:17:41;;;;;;;14.95;13.38;;;25.20;98.80;;;;;;1870432;76;21671;-86
2023/01/12 06:20:16;;;;;;;15.50;13.75;;;25.20;99.00;;;;;;1847085;76;21172;-87
2023/01/12 06:22:50;;;;;;;13.88;12.58;;;25.20;99.00;;;;;;1855697;74;21053;-86
2023/01/12 06:25:22;;;;;;;13.90;12.07;;;25.20;99.10;;;;;;1856792;76;21122;-85
2023/01/12 06:27:54;;;;;;;14.15;12.70;;;25.10;99.00;;;;;;1853755;76;21181;-85
2023/01/12 06:30:26;;;;;;;14.45;12.95;;;25.00;99.00;;;;;;1854945;76;21102;-86
2023/01/12 06:32:58;;;;;;;17.02;14.28;;;25.00;99.20;;;;;;1872518;76;21119;-86
2023/01/12 06:35:29;;;;;;;16.10;14.43;;;24.90;99.00;;;;;;1877599;76;21100;-86
2023/01/12 06:38:00;;;;;;;16.60;14.85;;;24.80;99.10;;;;;;1861387;76;21231;-87
2023/01/12 06:40:35;;;;;;;16.73;14.65;;;24.80;99.20;;;;;;1869378;76;21096;-86
2023/01/12 06:43:17;;;;;;;19.37;15.53;;;24.80;99.00;;;;;;1870173;76;21249;-86
2023/01/12 06:45:48;;;;;;;18.82;16.82;;;24.70;99.10;;;;;;1852479;76;21074;-84
2023/01/12 06:48:26;;;;;;;23.75;19.80;;;24.70;99.40;;;;;;1851263;76;21120;-85
2023/01/12 06:51:15;;;;;;;22.80;20.50;;;24.60;99.50;;;;;;1870669;76;21179;-86
2023/01/12 06:53:47;;;;;;;20.70;18.55;;;24.70;99.70;;;;;;1849856;76;21278;-85
2023/01/12 06:56:18;;;;;;;23.55;21.05;;;24.60;99.50;;;;;;1867091;76;21242;-85
2023/01/12 06:58:49;;;;;;;23.70;21.23;;;24.60;99.50;;;;;;1861484;76;21092;-85
2023/01/12 07:01:21;;;;;;;24.45;19.82;;;24.70;99.50;;;;;;1856974;76;21142;-85
2023/01/12 07:03:52;;;;;;;20.32;18.15;;;24.60;99.30;;;;;;1862236;76;21838;-75
2023/01/12 07:06:24;;;;;;;19.55;17.45;;;24.60;99.40;;;;;;1858332;76;21145;-75
2023/01/12 07:08:55;;;;;;;18.57;16.10;;;24.60;99.30;;;;;;1833020;77;21171;-74
2023/01/12 07:11:45;;;;;;;16.57;14.87;;;24.60;99.30;;;;;;1864697;76;21089;-76
2023/01/12 07:14:16;;;;;;;16.52;14.40;;;24.60;99.30;;;;;;1894194;74;21567;-75
2023/01/12 07:16:48;;;;;;;14.55;13.00;;;24.60;99.30;;;;;;1885893;75;21173;-74
2023/01/12 07:19:19;;;;;;;13.55;12.15;;;24.70;99.40;;;;;;1892314;75;21091;-74
2023/01/12 07:21:50;;;;;;;9.13;7.95;;;24.70;99.50;;;;;;1886378;74;21197;-75
2023/01/12 07:24:31;;;;;;;10.93;8.05;;;24.70;99.10;;;;;;1844847;76;21175;-75
2023/01/12 07:27:02;;;;;;;7.87;6.92;;;24.80;99.00;;;;;;1840224;77;21112;-75
2023/01/12 07:29:34;;;;;;;8.53;7.12;;;24.80;99.00;;;;;;1888553;75;21092;-74
2023/01/12 07:32:05;;;;;;;7.95;5.12;;;24.80;99.00;;;;;;1888619;75;21335;-75
2023/01/12 07:34:46;;;;;;;5.87;4.90;;;24.80;99.00;;;;;;1885391;73;21678;-75
2023/01/12 07:37:16;;;;;;;7.40;5.78;;;24.80;99.00;;;;;;1887922;75;21080;-73
2023/01/12 07:39:49;;;;;;;11.63;8.83;;;24.90;99.10;;;;;;1887467;75;21604;-71
2023/01/12 07:42:24;;;;;;;12.13;10.15;;;24.90;99.10;;;;;;1891894;75;21206;-71
2023/01/12 07:45:09;;;;;;;11.60;8.03;;;24.90;99.10;;;;;;1891037;74;21191;-71
2023/01/12 07:47:45;;;;;;;9.00;7.55;;;24.90;99.20;;;;;;1836551;76;21106;-71
2023/01/12 07:50:24;;;;;;;9.73;5.92;;;24.90;99.20;;;;;;1848737;77;21206;-71
2023/01/12 07:52:55;;;;;;;7.60;6.22;;;25.00;99.00;;;;;;1825762;77;21158;-71
2023/01/12 07:55:33;;;;;;;7.83;6.42;;;25.00;99.00;;;;;;1841538;76;21222;-70
2023/01/12 07:58:11;;;;;;;10.40;8.65;;;25.10;99.00;;;;;;1848057;76;21191;-71
2023/01/12 08:00:45;;;;;;;7.03;5.90;;;25.10;98.90;;;;;;1831358;77;21233;-71
2023/01/12 08:03:18;;;;;;;7.25;5.53;;;25.10;98.30;;;;;;1842410;75;21533;-71
2023/01/12 08:05:58;;;;;;;7.35;6.28;;;25.10;98.50;;;;;;1846574;77;21567;-71
2023/01/12 08:08:29;;;;;;;12.55;7.03;;;25.20;98.60;;;;;;1875092;75;21159;-71
2023/01/12 08:11:08;;;;;;;7.78;6.10;;;25.20;98.50;;;;;;1900227;74;21088;-71
2023/01/12 08:13:44;;;;;;;12.35;7.15;;;25.20;98.20;;;;;;1888539;74;21152;-70
2023/01/12 08:16:18;;;;;;;11.48;6.97;;;25.20;98.20;;;;;;1888075;73;21113;-71
2023/01/12 08:19:01;;;;;;;8.55;6.55;;;25.20;98.40;;;;;;1899918;74;21154;-71
2023/01/12 08:21:50;;;;;;;12.07;7.20;;;25.20;98.40;;;;;;1890031;74;21176;-70
2023/01/12 08:24:32;;;;;;;9.83;8.00;;;25.20;98.40;;;;;;1891635;75;21134;-69
2023/01/12 08:27:08;;;;;;;10.78;7.58;;;25.30;98.80;;;;;;1887692;75;21179;-71
2023/01/12 08:29:47;;;;;;;10.05;7.55;;;25.30;98.60;;;;;;1894842;74;21227;-71
2023/01/12 08:32:20;;;;;;;11.38;7.62;;;25.30;98.40;;;;;;1891499;74;21233;-72
2023/01/12 08:34:59;;;;;;;9.15;7.58;;;25.30;98.20;;;;;;1889128;75;21179;-70
2023/01/12 08:37:33;;;;;;;12.50;7.72;;;25.30;98.20;;;;;;1892409;74;21073;-69
2023/01/12 08:40:07;;;;;;;9.68;7.37;;;25.30;98.30;;;;;;1892639;74;21260;-72
2023/01/12 08:42:49;;;;;;;12.10;8.90;;;25.30;98.30;;;;;;1890815;75;22397;-72
2023/01/12 08:45:20;;;;;;;16.27;10.18;;;25.30;98.20;;;;;;1834464;76;21127;-71
2023/01/12 08:47:57;;;;;;;13.68;9.70;;;25.30;98.30;;;;;;1832877;76;21155;-71
2023/01/12 08:50:32;;;;;;;12.82;9.38;;;25.30;98.70;;;;;;1828689;77;21180;-71
2023/01/12 08:53:05;;;;;;;10.40;9.38;;;25.30;98.30;;;;;;1865974;76;21811;-70
2023/01/12 08:55:36;;;;;;;13.90;9.08;;;25.30;98.40;;;;;;1829231;76;21137;-71
2023/01/12 08:58:11;;;;;;;11.45;9.75;;;25.30;98.70;;;;;;1832239;76;21080;-71
2023/01/12 09:00:43;;;;;;;9.45;8.45;;;25.20;98.30;;;;;;1862317;75;21083;-71
2023/01/12 09:03:15;;;;;;;9.70;8.23;;;25.30;98.30;;;;;;1894380;74;21213;-71
2023/01/12 09:05:47;;;;;;;11.22;8.43;;;25.20;98.20;;;;;;1841717;76;21096;-71
2023/01/12 09:08:18;;;;;;;8.68;7.80;;;25.20;98.30;;;;;;1849318;76;21179;-70
2023/01/12 09:10:49;;;;;;;12.13;9.80;;;25.20;98.40;;;;;;1846078;76;21546;-72
2023/01/12 09:13:25;;;;;;;13.05;8.68;;;25.20;98.30;;;;;;1850772;76;21258;-71
2023/01/12 09:16:09;;;;;;;13.45;7.47;;;25.20;98.40;;;;;;1903879;74;21060;-71
2023/01/12 09:18:43;;;;;;;10.65;7.80;;;25.20;98.40;;;;;;1907990;74;21167;-72
2023/01/12 09:21:17;;;;;;;8.53;7.62;;;25.20;98.40;;;;;;1902135;74;21076;-84
2023/01/12 09:23:53;;;;;;;17.90;9.28;;;25.20;98.50;;;;;;1905879;74;21235;-84
2023/01/12 09:26:34;;;;;;;14.40;10.65;;;25.20;98.50;;;;;;1912488;74;21157;-84
2023/01/12 09:29:06;;;;;;;12.98;10.85;;;25.20;98.70;;;;;;1907641;74;21113;-84
2023/01/12 09:31:39;;;;;;;12.43;10.55;;;25.20;98.60;;;;;;1909276;74;21220;-84
2023/01/12 09:34:11;;;;;;;15.72;10.60;;;25.10;98.50;;;;;;1914124;74;21060;-84
2023/01/12 09:36:43;;;;;;;15.70;11.20;;;25.10;98.60;;;;;;1928317;74;21181;-86
2023/01/12 09:39:16;;;;;;;19.12;14.83;;;25.10;98.60;;;;;;1893830;73;21060;-85
2023/01/12 09:47:38;;;;;;;14.55;13.08;;;25.20;98.50;;;;;;1904551;73;21089;-88
2023/01/12 09:50:18;;;;;;;17.23;13.68;;;25.20;98.50;;;;;;1896517;73;21547;-88
2023/01/12 09:52:54;;;;;;;13.95;12.50;;;25.20;98.50;;;;;;1932782;73;21560;-85
2023/01/12 09:55:28;;;;;;;19.12;14.93;;;25.20;98.40;;;;;;1899451;74;21099;-85
2023/01/12 09:58:26;;;;;;;15.72;14.05;;;25.30;98.40;;;;;;1891989;76;21179;-86
2023/01/12 10:00:59;;;;;;;16.60;14.73;;;25.20;98.30;;;;;;1893096;74;21075;-86
2023/01/12 10:03:37;;;;;;;18.98;15.72;;;25.20;98.40;;;;;;1895512;74;21138;-88
2023/01/12 10:06:12;;;;;;;14.87;13.38;;;25.20;98.40;;;;;;1910529;74;21076;-86
2023/01/12 10:08:46;;;;;;;15.80;14.13;;;25.20;98.40;;;;;;1931914;74;21188;-87
2023/01/12 10:11:39;;;;;;;15.90;14.30;;;25.20;98.50;;;;;;1926407;74;21131;-87
2023/01/12 10:14:34;;;;;;;18.25;14.90;;;25.10;98.50;;;;;;1889763;74;21796;-84
2023/01/12 10:17:16;;;;;;;18.37;14.35;;;25.10;98.50;;;;;;1891402;74;21081;-84
2023/01/12 10:20:10;;;;;;;16.85;14.28;;;25.10;98.60;;;;;;1887697;75;21084;-84
2023/01/12 10:22:53;;;;;;;16.05;13.43;;;25.10;98.60;;;;;;1894153;74;21130;-87
2023/01/12 10:25:48;;;;;;;17.85;14.65;;;25.00;98.70;;;;;;1894501;75;21172;-85
2023/01/12 10:28:28;;;;;;;16.10;14.10;;;25.00;98.70;;;;;;1891410;73;21622;-85
2023/01/12 10:31:00;;;;;;;17.32;14.78;;;25.00;98.80;;;;;;1848003;78;21143;-85
2023/01/12 10:33:34;;;;;;;16.35;14.25;;;24.90;98.80;;;;;;1861382;76;21139;-85
2023/01/12 10:36:11;;;;;;;17.82;15.43;;;24.90;98.90;;;;;;1863076;76;21080;-87
2023/01/12 10:38:58;;;;;;;16.20;14.20;;;24.80;99.00;;;;;;1887947;75;21131;-87
2023/01/12 10:41:31;;;;;;;18.98;14.85;;;24.80;99.10;;;;;;1898809;75;21195;-86
2023/01/12 10:44:04;;;;;;;17.70;15.15;;;24.80;99.20;;;;;;1882183;75;21088;-86
2023/01/12 10:46:35;;;;;;;18.40;14.93;;;24.80;99.20;;;;;;1885835;73;21253;-86
2023/01/12 10:49:25;;;;;;;16.50;14.33;;;24.70;99.20;;;;;;1881754;75;21142;-87
2023/01/12 10:51:59;;;;;;;16.67;15.08;;;24.70;99.30;;;;;;1904204;75;21080;-85
2023/01/12 10:54:35;;;;;;;18.73;15.65;;;24.70;99.40;;;;;;1907792;75;21085;-87
2023/01/12 10:57:15;;;;;;;19.07;15.95;;;24.60;99.50;;;;;;1894021;75;21171;-87
2023/01/12 10:59:55;;;;;;;17.70;15.72;;;24.60;99.60;;;;;;1903678;75;21540;-86
2023/01/12 11:02:29;;;;;;;20.62;16.52;;;24.60;99.70;;;;;;1907610;75;21343;-88
2023/01/12 11:05:00;;;;;;;19.15;15.45;;;24.60;99.80;;;;;;1908372;75;21076;-89
2023/01/12 11:07:34;;;;;;;17.42;15.30;;;24.60;99.80;;;;;;1912410;75;21146;-86
2023/01/12 11:10:19;;;;;;;17.82;16.02;;;24.50;99.80;;;;;;1899030;75;21120;-87
2023/01/12 11:13:07;;;;;;;16.67;14.55;;;24.50;99.90;;;;;;1908704;75;21092;-87
2023/01/12 11:15:38;;;;;;;16.82;15.20;;;24.50;99.90;;;;;;1884186;75;21092;-86
2023/01/12 11:18:34;;;;;;;21.87;16.67;;;24.50;99.90;;;;;;1881262;75;21076;-86
2023/01/12 11:21:10;;;;;;;17.70;14.85;;;24.50;99.90;;;;;;1890742;75;21729;-86
2023/01/12 11:23:49;;;;;;;21.50;15.35;;;24.40;99.90;;;;;;1880849;75;21157;-86
2023/01/12 11:26:24;;;;;;;16.30;14.35;;;24.40;99.90;;;;;;1872136;75;21224;-86
2023/01/12 11:28:58;;;;;;;16.25;14.55;;;24.40;99.90;;;;;;1896157;75;21199;-86
2023/01/12 11:31:40;;;;;;;17.32;15.15;;;24.40;99.90;;;;;;1888008;75;21088;-88
2023/01/12 11:34:26;;;;;;;17.90;14.07;;;24.30;99.90;;;;;;1889064;75;21138;-87
2023/01/12 11:36:59;;;;;;;16.70;14.58;;;24.30;99.90;;;;;;1884119;75;21486;-87
2023/01/12 11:39:33;;;;;;;20.82;14.45;;;24.30;99.90;;;;;;1882236;75;21058;-85
2023/01/12 11:45:00;;;;;;;16.25;13.53;;;24.20;99.90;;;;;;1882565;75;21140;-87
2023/01/12 11:47:36;;;;;;;22.13;16.85;;;24.20;99.90;;;;;;1880563;75;21120;-86
2023/01/12 11:50:20;;;;;;;18.75;15.78;;;24.20;99.90;;;;;;1884495;75;21245;-87
2023/01/12 11:52:52;;;;;;;20.02;14.65;;;24.20;99.90;;;;;;1823107;78;21148;-86
2023/01/12 11:55:25;;;;;;;17.85;15.78;;;24.10;99.90;;;;;;1881473;75;21133;-86
2023/01/12 11:58:01;;;;;;;22.67;15.32;;;24.10;99.90;;;;;;1871860;75;21177;-88
2023/01/12 12:00:53;;;;;;;22.13;15.68;;;24.10;99.90;;;;;;1883801;75;21105;-86
2023/01/12 12:03:45;;;;;;;17.75;13.72;;;24.10;99.90;;;;;;1889790;75;21096;-84
2023/01/12 12:06:27;;;;;;;16.07;13.72;;;24.10;99.90;;;;;;1880244;75;21234;-86
2023/01/12 12:09:06;;;;;;;21.50;13.22;;;24.10;99.90;;;;;;1880784;75;21128;-86
2023/01/12 12:11:43;;;;;;;17.23;12.90;;;24.00;99.90;;;;;;1888524;75;21069;-86
2023/01/12 12:14:27;;;;;;;15.65;12.53;;;24.00;99.90;;;;;;1881089;75;21175;-87
2023/01/12 12:17:12;;;;;;;14.38;12.40;;;24.00;99.90;;;;;;1895230;75;21576;-87
2023/01/12 12:19:54;;;;;;;15.60;11.97;;;24.00;99.90;;;;;;1882786;75;21145;-87
2023/01/12 12:22:53;;;;;;;16.07;12.68;;;24.00;99.90;;;;;;1881503;75;21082;-86
2023/01/12 12:25:48;;;;;;;18.30;12.73;;;23.90;99.90;;;;;;1882540;75;21140;-86
2023/01/12 12:28:33;;;;;;;16.10;12.37;;;23.90;99.90;;;;;;1891070;75;21070;-86
2023/01/12 12:31:07;;;;;;;15.98;12.90;;;23.90;99.90;;;;;;1889693;75;21285;-88
2023/01/12 12:33:46;;;;;;;17.52;13.20;;;23.90;99.90;;;;;;1878019;75;21085;-87
2023/01/12 12:36:28;;;;;;;19.25;12.82;;;23.90;99.90;;;;;;1896111;75;21131;-87
2023/01/12 12:39:10;;;;;;;19.70;13.68;;;23.80;99.90;;;;;;1889501;75;21139;-86
2023/01/12 12:48:08;;;;;;;19.67;14.65;;;23.80;99.90;;;;;;1841126;76;21474;-86
2023/01/12 12:50:44;;;;;;;18.43;14.27;;;23.70;99.90;;;;;;1880294;75;21164;-85
2023/01/12 12:53:30;;;;;;;20.32;14.95;;;23.70;99.90;;;;;;1881164;75;21487;-87
2023/01/12 12:56:05;;;;;;;22.32;14.00;;;23.70;99.90;;;;;;1882061;76;21088;-88
2023/01/12 12:58:46;;;;;;;19.25;14.40;;;23.70;99.90;;;;;;1884965;75;21270;-86
2023/01/12 13:01:23;;;;;;;23.02;15.35;;;23.70;99.90;;;;;;1880545;75;21140;-87
2023/01/12 13:03:55;;;;;;;22.25;15.45;;;23.60;99.90;;;;;;1879432;75;21861;-86
2023/01/12 13:06:32;;;;;;;22.15;16.12;;;23.60;99.90;;;;;;1886757;75;21198;-86
2023/01/12 13:09:20;;;;;;;20.70;15.98;;;23.60;99.90;;;;;;1880372;75;21078;-87
2023/01/12 13:12:03;;;;;;;21.48;17.00;;;23.60;99.90;;;;;;1880145;75;21142;-85
2023/01/12 13:14:38;;;;;;;24.80;16.65;;;23.50;99.90;;;;;;1883355;75;21142;-87
2023/01/12 13:17:25;;;;;;;24.55;18.10;;;23.50;99.90;;;;;;1908032;75;21143;-86
2023/01/12 13:20:04;;;;;;;22.50;18.10;;;23.50;99.90;;;;;;1880721;75;21147;-87
2023/01/12 13:22:50;;;;;;;23.42;17.23;;;23.50;99.90;;;;;;1901967;75;21512;-86
2023/01/12 13:25:26;;;;;;;24.15;19.57;;;23.40;99.90;;;;;;1896284;75;21065;-87
2023/01/12 13:28:01;;;;;;;21.80;17.98;;;23.40;99.90;;;;;;1905685;75;21037;-86
2023/01/12 13:30:38;;;;;;;20.12;15.35;;;23.40;99.90;;;;;;1900445;75;21116;-86
2023/01/12 13:33:19;;;;;;;18.70;15.25;;;23.40;99.90;;;;;;1904726;73;21143;-86
2023/01/12 13:36:02;;;;;;;24.90;16.87;;;23.40;99.90;;;;;;1896951;75;21182;-86
2023/01/12 13:38:39;;;;;;;23.32;16.60;;;23.40;99.90;;;;;;1883372;75;21320;-86
2023/01/12 13:44:12;;;;;;;27.20;18.62;;;23.40;99.90;;;;;;1893409;75;21116;-87
2023/01/12 13:47:15;;;;;;;20.40;16.05;;;23.40;99.90;;;;;;1891945;75;21612;-86
2023/01/12 13:49:48;;;;;;;21.50;14.25;;;23.40;99.90;;;;;;1865042;75;21572;-86
2023/01/12 13:52:31;;;;;;;20.12;15.48;;;23.40;99.90;;;;;;1835439;76;21101;-87
2023/01/12 13:55:04;;;;;;;20.43;16.55;;;23.40;99.90;;;;;;1865138;77;21092;-86
2023/01/12 13:57:35;;;;;;;26.05;19.02;;;23.40;99.90;;;;;;1840506;76;21185;-86
2023/01/12 14:00:09;;;;;;;18.27;15.78;;;23.30;99.90;;;;;;1843170;76;21245;-86
2023/01/12 14:02:41;;;;;;;18.73;15.78;;;23.40;99.90;;;;;;1832821;77;21168;-85
2023/01/12 14:05:33;;;;;;;20.62;15.18;;;23.40;99.90;;;;;;1828538;78;21116;-86